Buffalo, WY

5:27 AM MDT on September 01, 2014 (GMT -0600)
Johnson County | Change Station
CLOSE
Current Station
Airport
Location: Buffalo,
Elevation: 4967 ft
Nearby Weather Stations

Elev 4967 ft 44.38 °N, 106.72 °W | Updated 34 minutes ago

Scattered Clouds
Scattered Clouds
52 °F
Feels Like 52 °F
N
4
Wind Variable Wind from North

Today
High -- | Low -- °F
--% Chance of Precip.
Yesterday
High -- | Low -- °F
Precip. -- in
6:29 AM 7:43 PM
Waxing Crescent, 40% visible
Pressure 29.89 in
Visibility 10.0 miles
Clouds Scattered Clouds 9500 ft
Dew Point 41 °F
Humidity 66%
Rainfall 0.00 in
Snow Depth 0 in , 0 in
UV 0 out of 12
Pollen 7.30 out of 12
Air Quality Not available.
Flu Activity Not available.
METAR KBYG 011053Z AUTO 35003KT 10SM SCT095 11/05 A3000 RMK AO2 SLP120 T01110050

More Conditions Fewer Conditions

Pressure 29.89 in
Visibility 10.0 miles
Clouds Scattered Clouds 9500 ft
Dew Point 41 °F
Humidity 66%
Rainfall 0.00 in
Snow Depth 0 in , 0 in
UV 0 out of 12
Pollen 7.30 out of 12
Air Quality Not available.
Flu Activity Not available.
METAR KBYG 011053Z AUTO 35003KT 10SM SCT095 11/05 A3000 RMK AO2 SLP120 T01110050

More Conditions Fewer Conditions

10-Day Weather Forecast

Almanac

Astronomy

Sep. 01, 2014 Rise Set
Actual Time 6:29 AM MDT 7:43 PM MDT
Civil Twilight 5:59 AM MDT 8:12 PM MDT
Nautical Twilight 5:23 AM MDT 8:48 PM MDT
Astronomical Twilight 4:45 AM MDT 9:26 PM MDT
Moon 1:33 PM MDT 11:30 PM MDT
Length of Visible Light 14h 13m
Length of Day
13h 13m
Tomorrow will be 2m 56s shorter.
Waxing Crescent, 40% of the Moon is Illuminated
Today
Waxing Crescent
Sep 2
First Quarter
Sep 8
Full
Sep 15
Last Quarter
Sep 24
New

Today's Extremes

State Highs State Lows

Community

WunderPhotos

Upload Photos

1,749,188 photos uploaded!

Nearby

Snow Depth

Station Depth Elevation
Hansen Sawmill 0 in 8360 ft
Cloud Peak Reservoir 0 in 9860 ft
Powder River Pass 0 in 9480 ft
Big Goose 0 in 7990 ft
Shell Creek 0 in 9580 ft

Earthquake Activity

City Distance Mag. Time & Date
No recent earthquake activity has been reported nearby.
Minimum magnitude displayed is 2.5.

Coastal Water Temperatures

Place Temperature
No Stations Reporting

Nearby Weather Stations